createdAt,value
2022-10-15T00:02:03.500Z,11.80
2022-10-15T00:04:30.865Z,11.80
2022-10-15T00:06:58.162Z,11.80
2022-10-15T00:09:25.154Z,11.80
2022-10-15T00:11:52.015Z,11.80
2022-10-15T00:14:18.803Z,11.80
2022-10-15T00:16:45.559Z,11.80
2022-10-15T00:19:12.723Z,11.80
2022-10-15T00:21:39.849Z,11.80
2022-10-15T00:24:06.892Z,11.90
2022-10-15T00:26:33.723Z,11.90
2022-10-15T00:29:02.117Z,11.90
2022-10-15T00:31:30.249Z,11.90
2022-10-15T00:33:57.919Z,11.90
2022-10-15T00:36:26.150Z,11.90
2022-10-15T00:38:53.007Z,11.90
2022-10-15T00:41:21.441Z,11.90
2022-10-15T00:43:48.277Z,12.00
2022-10-15T00:46:24.019Z,11.90
2022-10-15T00:48:54.654Z,11.90
2022-10-15T00:51:22.608Z,12.00
2022-10-15T00:53:50.021Z,11.90
2022-10-15T00:56:19.674Z,11.90
2022-10-15T00:58:46.990Z,11.90
2022-10-15T01:01:13.815Z,11.90
2022-10-15T01:03:41.296Z,11.90
2022-10-15T01:06:08.059Z,11.90
2022-10-15T01:08:35.076Z,11.90
2022-10-15T01:11:20.577Z,11.90
2022-10-15T01:14:05.903Z,11.90
2022-10-15T01:16:53.849Z,11.90
2022-10-15T01:19:31.836Z,11.90
2022-10-15T01:22:03.733Z,11.90
2022-10-15T01:24:40.025Z,11.90
2022-10-15T01:27:17.535Z,11.90
2022-10-15T01:30:03.043Z,11.80
2022-10-15T01:32:34.845Z,11.80
2022-10-15T01:35:07.565Z,11.80
2022-10-15T01:37:43.442Z,11.80
2022-10-15T01:40:17.850Z,11.80
2022-10-15T01:42:44.767Z,11.70
2022-10-15T01:45:16.239Z,11.70
2022-10-15T01:48:12.771Z,11.70
2022-10-15T01:50:43.895Z,11.70
2022-10-15T01:53:11.728Z,11.60
2022-10-15T01:55:41.655Z,11.60
2022-10-15T01:58:09.981Z,11.60
2022-10-15T02:00:37.167Z,11.60
2022-10-15T02:03:04.403Z,11.60
2022-10-15T02:05:38.365Z,11.60
2022-10-15T02:08:17.379Z,11.60
2022-10-15T02:13:34.804Z,11.60
2022-10-15T02:16:19.751Z,11.60
2022-10-15T02:19:00.095Z,11.60
2022-10-15T02:21:35.266Z,11.60
2022-10-15T02:24:11.148Z,11.60
2022-10-15T02:26:38.861Z,11.50
2022-10-15T02:29:07.870Z,11.50
2022-10-15T02:31:35.342Z,11.50
2022-10-15T02:34:04.910Z,11.50
2022-10-15T02:36:31.828Z,11.50
2022-10-15T02:38:59.966Z,11.50
2022-10-15T02:41:28.242Z,11.50
2022-10-15T02:43:56.317Z,11.50
2022-10-15T02:46:23.110Z,11.50
2022-10-15T02:48:49.906Z,11.50
2022-10-15T02:51:17.904Z,11.50
2022-10-15T02:53:44.690Z,11.50
2022-10-15T02:56:11.487Z,11.40
2022-10-15T02:58:38.316Z,11.40
2022-10-15T03:01:05.676Z,11.40
2022-10-15T03:03:33.369Z,11.40
2022-10-15T03:06:00.236Z,11.40
2022-10-15T03:08:27.608Z,11.40
2022-10-15T03:10:54.993Z,11.30
2022-10-15T03:13:22.372Z,11.30
2022-10-15T03:15:52.043Z,11.30
2022-10-15T03:18:20.569Z,11.30
2022-10-15T03:20:54.237Z,11.20
2022-10-15T03:23:21.280Z,11.20
2022-10-15T03:25:49.631Z,11.20
2022-10-15T03:28:22.021Z,11.10
2022-10-15T03:30:49.108Z,11.10
2022-10-15T03:33:16.749Z,11.10
2022-10-15T03:35:43.558Z,11.10
2022-10-15T03:38:11.030Z,11.10
2022-10-15T03:40:38.214Z,11.10
2022-10-15T03:43:26.179Z,11.10
2022-10-15T03:45:53.151Z,11.10
2022-10-15T03:48:23.313Z,11.10
2022-10-15T03:50:50.116Z,11.10
2022-10-15T03:53:16.880Z,11.00
2022-10-15T03:55:43.711Z,11.00
2022-10-15T03:58:10.550Z,11.00
2022-10-15T04:00:45.602Z,11.00
2022-10-15T04:03:12.412Z,11.00
2022-10-15T04:05:39.635Z,11.00
2022-10-15T04:08:09.000Z,10.90
2022-10-15T04:10:39.689Z,10.90
2022-10-15T04:13:06.897Z,10.90
2022-10-15T04:15:34.899Z,10.90
2022-10-15T04:18:07.735Z,10.90
2022-10-15T04:20:34.493Z,10.90
2022-10-15T04:23:11.463Z,11.00
2022-10-15T04:25:41.027Z,11.00
2022-10-15T04:28:08.455Z,11.00
2022-10-15T04:30:37.344Z,10.90
2022-10-15T04:33:07.305Z,10.90
2022-10-15T04:35:35.114Z,10.90
2022-10-15T04:38:08.319Z,10.90
2022-10-15T04:41:00.745Z,10.90
2022-10-15T04:43:34.612Z,10.90
2022-10-15T04:46:06.372Z,10.90
2022-10-15T04:48:36.577Z,10.90
2022-10-15T04:51:09.190Z,10.90
2022-10-15T04:53:50.510Z,10.90
2022-10-15T04:56:18.493Z,10.90
2022-10-15T04:58:46.924Z,10.80
2022-10-15T05:01:15.664Z,10.80
2022-10-15T05:04:14.448Z,10.80
2022-10-15T05:06:41.433Z,10.80
2022-10-15T05:09:17.073Z,10.70
2022-10-15T05:11:48.993Z,10.70
2022-10-15T05:14:15.839Z,10.80
2022-10-15T05:16:43.722Z,10.80
2022-10-15T05:19:11.109Z,10.80
2022-10-15T05:21:39.341Z,10.80
2022-10-15T05:24:13.505Z,10.80
2022-10-15T05:26:50.001Z,10.80
2022-10-15T05:29:16.994Z,10.80
2022-10-15T05:31:43.745Z,10.80
2022-10-15T05:34:17.654Z,10.80
2022-10-15T05:36:50.607Z,10.90
2022-10-15T05:39:17.497Z,10.90
2022-10-15T05:41:45.552Z,10.90
2022-10-15T05:44:13.648Z,10.80
2022-10-15T05:46:40.363Z,10.80
2022-10-15T05:49:07.178Z,10.90
2022-10-15T05:51:46.319Z,10.90
2022-10-15T05:54:21.259Z,10.80
2022-10-15T05:56:47.978Z,10.90
2022-10-15T05:59:14.782Z,11.00
2022-10-15T06:01:41.618Z,11.00
2022-10-15T06:04:08.543Z,10.90
2022-10-15T06:06:35.905Z,10.90
2022-10-15T06:09:03.024Z,11.00
2022-10-15T06:11:29.777Z,11.00
2022-10-15T06:13:56.560Z,11.00
2022-10-15T06:16:24.225Z,11.00
2022-10-15T06:18:51.791Z,11.10
2022-10-15T06:21:18.606Z,11.10
2022-10-15T06:23:45.843Z,11.10
2022-10-15T06:26:12.686Z,11.20
2022-10-15T06:28:41.694Z,11.20
2022-10-15T06:31:08.777Z,11.30
2022-10-15T06:33:36.144Z,11.30
2022-10-15T06:36:07.458Z,11.30
2022-10-15T06:38:34.412Z,11.40
2022-10-15T06:41:04.133Z,11.40
2022-10-15T06:43:32.619Z,11.50
2022-10-15T06:46:02.268Z,11.40
2022-10-15T06:48:29.058Z,11.50
2022-10-15T06:50:57.574Z,11.50
2022-10-15T06:53:24.272Z,11.50
2022-10-15T06:55:51.230Z,11.60
2022-10-15T06:58:18.014Z,11.60
2022-10-15T07:00:44.764Z,11.60
2022-10-15T07:03:11.512Z,11.70
2022-10-15T07:05:38.220Z,11.70
2022-10-15T07:08:05.204Z,11.70
2022-10-15T07:10:32.354Z,11.80
2022-10-15T07:12:59.640Z,11.90
2022-10-15T07:15:26.622Z,12.00
2022-10-15T07:17:56.744Z,12.10
2022-10-15T07:20:24.464Z,12.10
2022-10-15T07:22:52.163Z,12.20
2022-10-15T07:25:19.520Z,12.20
2022-10-15T07:27:46.225Z,12.30
2022-10-15T07:30:13.118Z,12.30
2022-10-15T07:32:39.883Z,12.30
2022-10-15T07:35:06.824Z,12.40
2022-10-15T07:37:33.624Z,12.40
2022-10-15T07:40:00.614Z,12.40
2022-10-15T07:42:27.435Z,12.50
2022-10-15T07:44:54.252Z,12.50
2022-10-15T07:47:21.123Z,12.60
2022-10-15T07:49:48.079Z,12.60
2022-10-15T07:52:14.810Z,12.70
2022-10-15T07:54:41.571Z,12.80
2022-10-15T07:57:09.137Z,12.80
2022-10-15T07:59:36.027Z,12.90
2022-10-15T08:02:02.973Z,13.00
2022-10-15T08:04:29.768Z,13.10
2022-10-15T08:06:56.568Z,13.10
2022-10-15T08:09:23.297Z,13.10
2022-10-15T08:11:50.041Z,13.20
2022-10-15T08:14:17.908Z,13.10
2022-10-15T08:16:44.717Z,13.10
2022-10-15T08:19:11.433Z,13.10
2022-10-15T08:21:38.186Z,13.10
2022-10-15T08:24:05.691Z,13.10
2022-10-15T08:26:35.229Z,13.20
2022-10-15T08:29:02.081Z,13.30
2022-10-15T08:31:28.913Z,13.40
2022-10-15T08:33:55.628Z,13.40
2022-10-15T08:36:22.368Z,13.60
2022-10-15T08:38:50.569Z,13.60
2022-10-15T08:41:26.140Z,13.70
2022-10-15T08:43:53.049Z,13.80
2022-10-15T08:46:25.478Z,13.90
2022-10-15T08:48:56.151Z,14.00
2022-10-15T08:51:23.947Z,14.00
2022-10-15T08:53:56.796Z,14.10
2022-10-15T08:56:29.592Z,14.10
2022-10-15T08:58:59.156Z,14.10
2022-10-15T09:01:34.986Z,14.20
2022-10-15T09:04:04.423Z,14.30
2022-10-15T09:06:34.585Z,14.40
2022-10-15T09:09:07.538Z,14.40
2022-10-15T09:11:52.808Z,14.40
2022-10-15T09:14:21.909Z,14.50
2022-10-15T09:16:49.704Z,14.50
2022-10-15T09:19:18.124Z,14.50
2022-10-15T09:21:45.973Z,14.50
2022-10-15T09:24:15.832Z,14.60
2022-10-15T09:26:51.221Z,14.60
2022-10-15T09:29:27.184Z,14.70
2022-10-15T09:32:03.633Z,14.70
2022-10-15T09:34:37.642Z,14.70
2022-10-15T09:37:12.648Z,14.80
2022-10-15T09:39:46.276Z,14.90
2022-10-15T09:42:15.892Z,15.00
2022-10-15T09:44:43.917Z,15.00
2022-10-15T09:47:16.924Z,15.10
2022-10-15T09:49:43.797Z,15.20
2022-10-15T09:52:16.143Z,15.20
2022-10-15T09:54:51.845Z,15.30
2022-10-15T09:57:20.778Z,15.30
2022-10-15T09:59:58.408Z,15.30
2022-10-15T10:02:25.862Z,15.30
2022-10-15T10:04:53.249Z,15.30
2022-10-15T10:07:29.263Z,15.20
2022-10-15T10:09:57.277Z,15.20
2022-10-15T10:12:35.278Z,15.10
2022-10-15T10:15:08.674Z,15.10
2022-10-15T10:17:35.563Z,15.10
2022-10-15T10:20:04.845Z,15.10
2022-10-15T10:22:41.576Z,15.10
2022-10-15T10:25:23.685Z,15.10
2022-10-15T10:27:50.538Z,15.20
2022-10-15T10:30:17.306Z,15.20
2022-10-15T10:32:44.358Z,15.20
2022-10-15T10:35:20.644Z,15.10
2022-10-15T10:37:47.654Z,15.20
2022-10-15T10:40:27.113Z,15.10
2022-10-15T10:43:15.159Z,15.20
2022-10-15T10:45:55.287Z,15.20
2022-10-15T10:48:26.419Z,15.30
2022-10-15T10:51:02.300Z,15.30
2022-10-15T10:53:29.008Z,15.40
2022-10-15T10:55:56.700Z,15.30
2022-10-15T10:58:33.992Z,15.30
2022-10-15T11:01:00.904Z,15.30
2022-10-15T11:03:33.821Z,15.30
2022-10-15T11:06:06.313Z,15.30
2022-10-15T11:08:37.249Z,15.40
2022-10-15T11:11:16.349Z,15.40
2022-10-15T11:13:43.074Z,15.40
2022-10-15T11:16:20.741Z,15.40
2022-10-15T11:18:53.445Z,15.50
2022-10-15T11:21:38.947Z,15.50
2022-10-15T11:24:10.127Z,15.40
2022-10-15T11:27:10.579Z,15.50
2022-10-15T11:29:59.528Z,15.50
2022-10-15T11:33:05.738Z,15.40
2022-10-15T11:35:52.369Z,15.50
2022-10-15T11:38:26.973Z,15.50
2022-10-15T11:40:56.880Z,15.50
2022-10-15T11:43:37.672Z,15.50
2022-10-15T11:46:13.540Z,15.50
2022-10-15T11:48:49.270Z,15.60
2022-10-15T11:51:16.107Z,15.50
2022-10-15T11:53:42.836Z,15.50
2022-10-15T11:56:28.100Z,15.60
2022-10-15T11:59:15.221Z,15.70
2022-10-15T12:01:58.175Z,15.70
2022-10-15T12:04:36.288Z,15.70
2022-10-15T12:07:04.703Z,15.70
2022-10-15T12:09:36.021Z,15.70
2022-10-15T12:12:15.120Z,15.70
2022-10-15T12:14:46.290Z,15.60
2022-10-15T12:17:31.355Z,15.60
2022-10-15T12:20:06.903Z,15.60
2022-10-15T12:22:53.887Z,15.60
2022-10-15T12:25:35.991Z,15.60
2022-10-15T12:28:23.065Z,15.60
2022-10-15T12:30:57.097Z,15.60
2022-10-15T12:33:31.887Z,15.50
2022-10-15T12:36:00.385Z,15.50
2022-10-15T12:38:32.188Z,15.60
2022-10-15T12:41:00.663Z,15.70
2022-10-15T12:43:28.332Z,15.90
2022-10-15T12:45:56.449Z,15.90
2022-10-15T12:48:30.957Z,15.90
2022-10-15T12:51:16.066Z,15.80
2022-10-15T12:53:43.370Z,15.80
2022-10-15T12:56:13.795Z,15.80
2022-10-15T12:58:44.583Z,15.80
2022-10-15T13:01:14.468Z,15.80
2022-10-15T13:03:50.498Z,15.70
2022-10-15T13:06:20.369Z,15.70
2022-10-15T13:09:02.579Z,15.60
2022-10-15T13:11:33.141Z,15.60
2022-10-15T13:14:20.329Z,15.60
2022-10-15T13:16:48.008Z,15.60
2022-10-15T13:19:19.570Z,15.50
2022-10-15T13:21:51.084Z,15.50
2022-10-15T13:24:18.634Z,15.60
2022-10-15T13:26:45.405Z,15.60
2022-10-15T13:29:16.221Z,15.70
2022-10-15T13:31:45.110Z,15.70
2022-10-15T13:34:31.597Z,15.70
2022-10-15T13:37:02.079Z,15.70
2022-10-15T13:39:30.828Z,15.80
2022-10-15T13:42:07.257Z,15.80
2022-10-15T13:44:34.029Z,15.70
2022-10-15T13:47:00.743Z,15.70
2022-10-15T13:49:28.941Z,15.70
2022-10-15T13:51:55.986Z,15.60
2022-10-15T13:54:24.731Z,15.50
2022-10-15T13:56:56.064Z,15.50
2022-10-15T13:59:23.388Z,15.40
2022-10-15T14:01:55.708Z,15.30
2022-10-15T14:04:23.188Z,15.30
2022-10-15T14:07:02.813Z,15.30
2022-10-15T14:09:30.583Z,15.20
2022-10-15T14:12:00.664Z,15.10
2022-10-15T14:14:41.645Z,15.10
2022-10-15T14:17:17.186Z,15.10
2022-10-15T14:19:51.486Z,15.10
2022-10-15T14:22:29.389Z,15.00
2022-10-15T14:24:56.398Z,15.00
2022-10-15T14:27:24.568Z,14.90
2022-10-15T14:29:52.496Z,14.90
2022-10-15T14:32:20.387Z,14.90
2022-10-15T14:34:47.552Z,14.80
2022-10-15T14:37:37.618Z,14.70
2022-10-15T14:40:13.501Z,14.70
2022-10-15T14:42:44.557Z,14.70
2022-10-15T14:45:31.068Z,14.60
2022-10-15T14:47:58.741Z,14.60
2022-10-15T14:50:26.913Z,14.50
2022-10-15T14:52:54.298Z,14.40
2022-10-15T14:55:24.383Z,14.40
2022-10-15T14:57:51.898Z,14.30
2022-10-15T15:00:18.633Z,14.30
2022-10-15T15:02:45.599Z,14.30
2022-10-15T15:05:12.356Z,14.20
2022-10-15T15:07:39.587Z,14.10
2022-10-15T15:10:07.246Z,14.10
2022-10-15T15:12:34.938Z,14.00
2022-10-15T15:15:02.206Z,14.00
2022-10-15T15:17:30.013Z,13.90
2022-10-15T15:19:57.617Z,13.90
2022-10-15T15:22:29.621Z,13.80
2022-10-15T15:24:57.857Z,13.80
2022-10-15T15:27:26.194Z,13.80
2022-10-15T15:29:53.140Z,13.70
2022-10-15T15:32:20.657Z,13.70
2022-10-15T15:34:47.918Z,13.70
2022-10-15T15:37:16.260Z,13.70
2022-10-15T15:39:43.289Z,13.60
2022-10-15T15:42:11.920Z,13.60
2022-10-15T15:44:38.726Z,13.60
2022-10-15T15:47:05.625Z,13.60
2022-10-15T15:49:32.457Z,13.60
2022-10-15T15:51:59.231Z,13.50
2022-10-15T15:54:26.017Z,13.50
2022-10-15T15:56:52.753Z,13.50
2022-10-15T15:59:19.568Z,13.50
2022-10-15T16:01:46.416Z,13.50
2022-10-15T16:04:14.031Z,13.40
2022-10-15T16:06:42.393Z,13.40
2022-10-15T16:09:09.159Z,13.40
2022-10-15T16:11:38.873Z,13.40
2022-10-15T16:14:09.197Z,13.40
2022-10-15T16:16:36.342Z,13.40
2022-10-15T16:19:03.759Z,13.30
2022-10-15T16:21:30.861Z,13.30
2022-10-15T16:23:58.263Z,13.30
2022-10-15T16:26:25.253Z,13.30
2022-10-15T16:28:52.025Z,13.30
2022-10-15T16:31:29.519Z,13.30
2022-10-15T16:33:57.397Z,13.30
2022-10-15T16:36:24.324Z,13.30
2022-10-15T16:38:51.432Z,13.30
2022-10-15T16:41:20.816Z,13.30
2022-10-15T16:43:48.312Z,13.30
2022-10-15T16:46:16.591Z,13.30
2022-10-15T16:48:43.657Z,13.30
2022-10-15T16:51:11.690Z,13.30
2022-10-15T16:53:39.057Z,13.30
2022-10-15T16:56:13.992Z,13.30
2022-10-15T16:58:40.819Z,13.30
2022-10-15T17:01:08.802Z,13.30
2022-10-15T17:03:36.625Z,13.30
2022-10-15T17:06:06.150Z,13.30
2022-10-15T17:08:40.382Z,13.30
2022-10-15T17:11:14.737Z,13.30
2022-10-15T17:13:42.049Z,13.30
2022-10-15T17:16:13.231Z,13.30
2022-10-15T17:18:40.234Z,13.30
2022-10-15T17:21:11.475Z,13.30
2022-10-15T17:23:38.454Z,13.40
2022-10-15T17:26:06.152Z,13.30
2022-10-15T17:28:33.202Z,13.30
2022-10-15T17:31:07.218Z,13.30
2022-10-15T17:33:34.703Z,13.30
2022-10-15T17:36:02.170Z,13.30
2022-10-15T17:38:29.001Z,13.30
2022-10-15T17:40:55.922Z,13.30
2022-10-15T17:43:22.682Z,13.30
2022-10-15T17:45:49.395Z,13.30
2022-10-15T17:48:16.136Z,13.30
2022-10-15T17:50:45.346Z,13.30
2022-10-15T17:53:13.338Z,13.30
2022-10-15T17:55:40.552Z,13.30
2022-10-15T17:58:07.547Z,13.20
2022-10-15T18:00:34.391Z,13.20
2022-10-15T18:03:01.129Z,13.20
2022-10-15T18:05:27.901Z,13.30
2022-10-15T18:07:54.728Z,13.20
2022-10-15T18:10:21.453Z,13.20
2022-10-15T18:12:48.203Z,13.20
2022-10-15T18:15:15.019Z,13.20
2022-10-15T18:17:41.824Z,13.20
2022-10-15T18:20:08.788Z,13.20
2022-10-15T18:22:35.685Z,13.20
2022-10-15T18:25:02.551Z,13.20
2022-10-15T18:27:29.283Z,13.20
2022-10-15T18:29:56.056Z,13.20
2022-10-15T18:32:22.873Z,13.20
2022-10-15T18:34:49.650Z,13.20
2022-10-15T18:37:16.356Z,13.20
2022-10-15T18:39:43.117Z,13.20
2022-10-15T18:42:09.911Z,13.20
2022-10-15T18:44:36.680Z,13.10
2022-10-15T18:47:03.469Z,13.20
2022-10-15T18:49:30.977Z,13.10
2022-10-15T18:52:00.385Z,13.10
2022-10-15T18:54:36.462Z,13.10
2022-10-15T18:57:03.819Z,13.10
2022-10-15T18:59:30.557Z,13.20
2022-10-15T19:01:57.618Z,13.10
2022-10-15T19:04:24.425Z,13.10
2022-10-15T19:06:52.701Z,13.10
2022-10-15T19:09:24.137Z,13.10
2022-10-15T19:11:52.272Z,13.10
2022-10-15T19:14:19.006Z,13.10
2022-10-15T19:16:46.696Z,13.20
2022-10-15T19:19:16.193Z,13.10
2022-10-15T19:21:43.618Z,13.10
2022-10-15T19:24:10.504Z,13.10
2022-10-15T19:26:37.264Z,13.10
2022-10-15T19:29:04.134Z,13.10
2022-10-15T19:31:35.257Z,13.10
2022-10-15T19:34:02.044Z,13.10
2022-10-15T19:36:38.560Z,13.10
2022-10-15T19:39:07.343Z,13.10
2022-10-15T19:41:38.189Z,13.10
2022-10-15T19:44:05.548Z,13.10
2022-10-15T19:46:32.316Z,13.10
2022-10-15T19:48:59.077Z,13.10
2022-10-15T19:51:25.798Z,13.10
2022-10-15T19:53:52.949Z,13.10
2022-10-15T19:56:20.282Z,13.10
2022-10-15T19:58:47.059Z,13.10
2022-10-15T20:01:13.918Z,13.10
2022-10-15T20:03:40.793Z,13.10
2022-10-15T20:06:07.912Z,13.10
2022-10-15T20:08:34.838Z,13.10
2022-10-15T20:11:05.137Z,13.10
2022-10-15T20:13:31.926Z,13.10
2022-10-15T20:16:01.450Z,13.10
2022-10-15T20:18:28.285Z,13.10
2022-10-15T20:20:55.068Z,13.10
2022-10-15T20:23:23.577Z,13.10
2022-10-15T20:25:50.330Z,13.10
2022-10-15T20:28:18.322Z,13.10
2022-10-15T20:30:47.280Z,13.10
2022-10-15T20:33:14.109Z,13.20
2022-10-15T20:35:41.772Z,13.10
2022-10-15T20:38:08.562Z,13.20
2022-10-15T20:40:38.731Z,13.10
2022-10-15T20:43:06.104Z,13.10
2022-10-15T20:45:38.229Z,13.10
2022-10-15T20:48:05.022Z,13.10
2022-10-15T20:50:33.210Z,13.10
2022-10-15T20:53:01.020Z,13.10
2022-10-15T20:55:28.319Z,13.10
2022-10-15T20:57:55.144Z,13.10
2022-10-15T21:00:21.890Z,13.10
2022-10-15T21:02:48.629Z,13.10
2022-10-15T21:05:15.419Z,13.10
2022-10-15T21:07:42.213Z,13.10
2022-10-15T21:10:09.246Z,13.10
2022-10-15T21:12:35.947Z,13.10
2022-10-15T21:15:02.722Z,13.10
2022-10-15T21:17:29.544Z,13.10
2022-10-15T21:19:56.386Z,13.10
2022-10-15T21:22:23.130Z,13.10
2022-10-15T21:24:49.921Z,13.10
2022-10-15T21:27:16.705Z,13.10
2022-10-15T21:29:45.076Z,13.00
2022-10-15T21:32:11.845Z,13.00
2022-10-15T21:37:11.292Z,13.00
2022-10-15T21:39:37.994Z,13.00
2022-10-15T21:42:04.817Z,13.00
2022-10-15T21:44:31.786Z,13.00
2022-10-15T21:46:58.561Z,13.00
2022-10-15T21:49:25.306Z,13.00
2022-10-15T21:51:52.146Z,13.10
2022-10-15T21:54:18.886Z,13.00
2022-10-15T21:56:45.596Z,13.10
2022-10-15T21:59:12.413Z,13.10
2022-10-15T22:01:41.295Z,13.10
2022-10-15T22:04:09.615Z,13.10
2022-10-15T22:06:37.069Z,13.10
2022-10-15T22:09:04.354Z,13.10
2022-10-15T22:11:33.080Z,13.10
2022-10-15T22:14:01.185Z,13.10
2022-10-15T22:16:28.284Z,13.10
2022-10-15T22:18:55.564Z,13.10
2022-10-15T22:21:23.792Z,13.10
2022-10-15T22:23:55.154Z,13.10
2022-10-15T22:26:23.447Z,13.00
2022-10-15T22:28:52.042Z,13.00
2022-10-15T22:31:18.859Z,13.00
2022-10-15T22:33:46.151Z,12.90
2022-10-15T22:36:19.890Z,12.90
2022-10-15T22:38:47.766Z,12.90
2022-10-15T22:41:14.930Z,12.90
2022-10-15T22:43:42.087Z,12.90
2022-10-15T22:46:08.897Z,12.90
2022-10-15T22:48:36.740Z,12.90
2022-10-15T22:51:04.629Z,12.90
2022-10-15T22:53:31.423Z,12.90
2022-10-15T22:55:59.401Z,12.90
2022-10-15T22:58:26.654Z,12.90
2022-10-15T23:00:53.738Z,12.90
2022-10-15T23:03:20.945Z,12.90
2022-10-15T23:05:54.448Z,12.80
2022-10-15T23:08:21.651Z,12.80
2022-10-15T23:10:48.861Z,12.90
2022-10-15T23:13:15.907Z,12.80
2022-10-15T23:15:42.630Z,12.80
2022-10-15T23:18:09.365Z,12.80
2022-10-15T23:20:38.141Z,12.80
2022-10-15T23:23:05.437Z,12.80
2022-10-15T23:25:38.583Z,12.80
2022-10-15T23:28:05.345Z,12.80
2022-10-15T23:30:32.196Z,12.70
2022-10-15T23:33:01.115Z,12.70
2022-10-15T23:35:27.877Z,12.70
2022-10-15T23:37:54.667Z,12.60
2022-10-15T23:40:21.449Z,12.60
2022-10-15T23:42:48.172Z,12.60
2022-10-15T23:45:14.993Z,12.60
2022-10-15T23:47:41.768Z,12.60
2022-10-15T23:50:08.813Z,12.50
2022-10-15T23:52:35.550Z,12.50
2022-10-15T23:55:02.293Z,12.50
2022-10-15T23:57:29.045Z,12.50
2022-10-15T23:59:55.791Z,12.50
